sensor_id;sensor_type;location;lat;lon;timestamp;P1;durP1;ratioP1;P2;durP2;ratioP2
26718;SDS011;14326;50.794;6.060;2024-01-10T00:02:12;26.38;;;8.85;;
26718;SDS011;14326;50.794;6.060;2024-01-10T00:04:38;33.60;;;8.77;;
26718;SDS011;14326;50.794;6.060;2024-01-10T00:07:05;27.65;;;7.78;;
26718;SDS011;14326;50.794;6.060;2024-01-10T00:09:32;25.60;;;9.18;;
26718;SDS011;14326;50.794;6.060;2024-01-10T00:11:59;29.77;;;8.52;;
26718;SDS011;14326;50.794;6.060;2024-01-10T00:14:26;29.08;;;8.82;;
26718;SDS011;14326;50.794;6.060;2024-01-10T00:16:52;25.02;;;8.65;;
26718;SDS011;14326;50.794;6.060;2024-01-10T00:19:19;27.83;;;8.75;;
26718;SDS011;14326;50.794;6.060;2024-01-10T00:21:45;30.85;;;8.50;;
26718;SDS011;14326;50.794;6.060;2024-01-10T00:24:11;25.73;;;9.30;;
26718;SDS011;14326;50.794;6.060;2024-01-10T00:26:38;33.55;;;9.18;;
26718;SDS011;14326;50.794;6.060;2024-01-10T00:29:06;26.30;;;8.68;;
26718;SDS011;14326;50.794;6.060;2024-01-10T00:31:32;25.63;;;9.30;;
26718;SDS011;14326;50.794;6.060;2024-01-10T00:33:58;24.52;;;8.60;;
26718;SDS011;14326;50.794;6.060;2024-01-10T00:36:25;25.65;;;9.00;;
26718;SDS011;14326;50.794;6.060;2024-01-10T00:38:54;24.27;;;8.35;;
26718;SDS011;14326;50.794;6.060;2024-01-10T00:41:21;29.30;;;8.95;;
26718;SDS011;14326;50.794;6.060;2024-01-10T00:43:47;27.15;;;8.80;;
26718;SDS011;14326;50.794;6.060;2024-01-10T00:46:15;29.08;;;9.35;;
26718;SDS011;14326;50.794;6.060;2024-01-10T00:48:41;29.38;;;8.68;;
26718;SDS011;14326;50.794;6.060;2024-01-10T00:51:08;29.92;;;9.05;;
26718;SDS011;14326;50.794;6.060;2024-01-10T00:53:34;24.73;;;8.65;;
26718;SDS011;14326;50.794;6.060;2024-01-10T00:56:00;23.35;;;8.50;;
26718;SDS011;14326;50.794;6.060;2024-01-10T00:58:27;25.15;;;8.05;;
26718;SDS011;14326;50.794;6.060;2024-01-10T01:00:53;31.75;;;8.63;;
26718;SDS011;14326;50.794;6.060;2024-01-10T01:03:21;24.15;;;7.93;;
26718;SDS011;14326;50.794;6.060;2024-01-10T01:05:47;29.60;;;8.90;;
26718;SDS011;14326;50.794;6.060;2024-01-10T01:08:14;25.75;;;8.98;;
26718;SDS011;14326;50.794;6.060;2024-01-10T01:10:40;26.02;;;8.68;;
26718;SDS011;14326;50.794;6.060;2024-01-10T01:13:07;25.05;;;8.55;;
26718;SDS011;14326;50.794;6.060;2024-01-10T01:15:33;28.45;;;9.30;;
26718;SDS011;14326;50.794;6.060;2024-01-10T01:17:59;30.52;;;8.82;;
26718;SDS011;14326;50.794;6.060;2024-01-10T01:20:27;25.30;;;8.80;;
26718;SDS011;14326;50.794;6.060;2024-01-10T01:22:53;28.02;;;8.45;;
26718;SDS011;14326;50.794;6.060;2024-01-10T01:25:20;26.17;;;9.02;;
26718;SDS011;14326;50.794;6.060;2024-01-10T01:27:46;29.13;;;9.65;;
26718;SDS011;14326;50.794;6.060;2024-01-10T01:30:12;25.65;;;8.23;;
26718;SDS011;14326;50.794;6.060;2024-01-10T01:32:39;26.08;;;8.68;;
26718;SDS011;14326;50.794;6.060;2024-01-10T01:35:06;27.15;;;8.65;;
26718;SDS011;14326;50.794;6.060;2024-01-10T01:37:34;29.02;;;8.40;;
26718;SDS011;14326;50.794;6.060;2024-01-10T01:40:00;28.13;;;9.25;;
26718;SDS011;14326;50.794;6.060;2024-01-10T01:42:27;24.35;;;8.25;;
26718;SDS011;14326;50.794;6.060;2024-01-10T01:44:53;23.08;;;8.27;;
26718;SDS011;14326;50.794;6.060;2024-01-10T01:47:20;24.88;;;8.70;;
26718;SDS011;14326;50.794;6.060;2024-01-10T01:49:46;27.65;;;8.90;;
26718;SDS011;14326;50.794;6.060;2024-01-10T01:52:13;27.77;;;9.55;;
26718;SDS011;14326;50.794;6.060;2024-01-10T01:54:41;26.73;;;8.85;;
26718;SDS011;14326;50.794;6.060;2024-01-10T01:57:07;26.05;;;9.18;;
26718;SDS011;14326;50.794;6.060;2024-01-10T01:59:34;27.88;;;9.02;;
26718;SDS011;14326;50.794;6.060;2024-01-10T02:02:00;29.67;;;8.82;;
26718;SDS011;14326;50.794;6.060;2024-01-10T02:04:29;31.33;;;8.48;;
26718;SDS011;14326;50.794;6.060;2024-01-10T02:06:56;30.55;;;8.70;;
26718;SDS011;14326;50.794;6.060;2024-01-10T02:09:23;28.20;;;8.52;;
26718;SDS011;14326;50.794;6.060;2024-01-10T02:11:51;26.83;;;8.90;;
26718;SDS011;14326;50.794;6.060;2024-01-10T02:14:17;24.02;;;8.88;;
26718;SDS011;14326;50.794;6.060;2024-01-10T02:16:44;28.77;;;8.82;;
26718;SDS011;14326;50.794;6.060;2024-01-10T02:19:20;27.27;;;8.73;;
26718;SDS011;14326;50.794;6.060;2024-01-10T02:21:46;30.70;;;9.02;;
26718;SDS011;14326;50.794;6.060;2024-01-10T02:24:13;27.33;;;9.00;;
26718;SDS011;14326;50.794;6.060;2024-01-10T02:26:40;29.70;;;8.38;;
26718;SDS011;14326;50.794;6.060;2024-01-10T02:29:07;24.63;;;8.57;;
26718;SDS011;14326;50.794;6.060;2024-01-10T02:31:33;27.08;;;9.55;;
26718;SDS011;14326;50.794;6.060;2024-01-10T02:34:00;25.77;;;9.10;;
26718;SDS011;14326;50.794;6.060;2024-01-10T02:36:26;25.02;;;7.78;;
26718;SDS011;14326;50.794;6.060;2024-01-10T02:38:53;27.13;;;8.77;;
26718;SDS011;14326;50.794;6.060;2024-01-10T02:41:19;30.02;;;9.13;;
26718;SDS011;14326;50.794;6.060;2024-01-10T02:43:47;26.90;;;8.77;;
26718;SDS011;14326;50.794;6.060;2024-01-10T02:46:13;26.65;;;8.75;;
26718;SDS011;14326;50.794;6.060;2024-01-10T02:48:40;25.80;;;8.13;;
26718;SDS011;14326;50.794;6.060;2024-01-10T02:51:06;24.23;;;8.30;;
26718;SDS011;14326;50.794;6.060;2024-01-10T02:53:33;24.70;;;9.80;;
26718;SDS011;14326;50.794;6.060;2024-01-10T02:55:59;26.02;;;8.68;;
26718;SDS011;14326;50.794;6.060;2024-01-10T02:58:25;25.05;;;8.98;;
26718;SDS011;14326;50.794;6.060;2024-01-10T03:00:54;25.38;;;9.60;;
26718;SDS011;14326;50.794;6.060;2024-01-10T03:03:22;23.52;;;9.25;;
26718;SDS011;14326;50.794;6.060;2024-01-10T03:05:48;25.25;;;8.02;;
26718;SDS011;14326;50.794;6.060;2024-01-10T03:08:15;28.25;;;9.52;;
26718;SDS011;14326;50.794;6.060;2024-01-10T03:10:41;26.52;;;9.43;;
26718;SDS011;14326;50.794;6.060;2024-01-10T03:13:07;26.55;;;9.40;;
26718;SDS011;14326;50.794;6.060;2024-01-10T03:15:34;28.40;;;8.98;;
26718;SDS011;14326;50.794;6.060;2024-01-10T03:18:01;23.90;;;8.75;;
26718;SDS011;14326;50.794;6.060;2024-01-10T03:20:28;25.73;;;8.40;;
26718;SDS011;14326;50.794;6.060;2024-01-10T03:22:54;25.85;;;8.32;;
26718;SDS011;14326;50.794;6.060;2024-01-10T03:25:21;24.40;;;8.80;;
26718;SDS011;14326;50.794;6.060;2024-01-10T03:27:47;23.27;;;7.57;;
26718;SDS011;14326;50.794;6.060;2024-01-10T03:30:14;24.23;;;8.57;;
26718;SDS011;14326;50.794;6.060;2024-01-10T03:32:43;25.13;;;7.63;;
26718;SDS011;14326;50.794;6.060;2024-01-10T03:35:10;31.85;;;8.77;;
26718;SDS011;14326;50.794;6.060;2024-01-10T03:37:37;30.77;;;9.02;;
26718;SDS011;14326;50.794;6.060;2024-01-10T03:40:03;23.30;;;7.90;;
26718;SDS011;14326;50.794;6.060;2024-01-10T03:42:30;23.40;;;7.93;;
26718;SDS011;14326;50.794;6.060;2024-01-10T03:44:56;25.48;;;8.52;;
26718;SDS011;14326;50.794;6.060;2024-01-10T03:47:23;29.73;;;9.13;;
26718;SDS011;14326;50.794;6.060;2024-01-10T03:49:49;28.45;;;9.05;;
26718;SDS011;14326;50.794;6.060;2024-01-10T03:52:17;27.52;;;9.23;;
26718;SDS011;14326;50.794;6.060;2024-01-10T03:54:44;26.90;;;9.15;;
26718;SDS011;14326;50.794;6.060;2024-01-10T03:57:10;28.10;;;10.02;;
26718;SDS011;14326;50.794;6.060;2024-01-10T03:59:36;24.45;;;8.85;;
26718;SDS011;14326;50.794;6.060;2024-01-10T04:02:03;26.02;;;8.43;;
26718;SDS011;14326;50.794;6.060;2024-01-10T04:04:29;26.77;;;8.75;;
26718;SDS011;14326;50.794;6.060;2024-01-10T04:06:56;26.40;;;9.23;;
26718;SDS011;14326;50.794;6.060;2024-01-10T04:09:23;24.63;;;8.93;;
26718;SDS011;14326;50.794;6.060;2024-01-10T04:11:50;29.80;;;8.77;;
26718;SDS011;14326;50.794;6.060;2024-01-10T04:14:16;28.17;;;9.55;;
26718;SDS011;14326;50.794;6.060;2024-01-10T04:16:42;27.33;;;9.63;;
26718;SDS011;14326;50.794;6.060;2024-01-10T04:19:09;23.92;;;8.35;;
26718;SDS011;14326;50.794;6.060;2024-01-10T04:21:35;27.42;;;8.48;;
26718;SDS011;14326;50.794;6.060;2024-01-10T04:24:02;29.25;;;9.57;;
26718;SDS011;14326;50.794;6.060;2024-01-10T04:26:30;27.83;;;9.60;;
26718;SDS011;14326;50.794;6.060;2024-01-10T04:28:57;26.73;;;10.10;;
26718;SDS011;14326;50.794;6.060;2024-01-10T04:31:23;24.98;;;9.52;;
26718;SDS011;14326;50.794;6.060;2024-01-10T04:33:50;24.90;;;9.25;;
26718;SDS011;14326;50.794;6.060;2024-01-10T04:36:16;26.10;;;8.98;;
26718;SDS011;14326;50.794;6.060;2024-01-10T04:38:42;26.10;;;8.60;;
26718;SDS011;14326;50.794;6.060;2024-01-10T04:41:09;27.45;;;9.20;;
26718;SDS011;14326;50.794;6.060;2024-01-10T04:43:36;22.15;;;8.25;;
26718;SDS011;14326;50.794;6.060;2024-01-10T04:46:03;25.35;;;9.40;;
26718;SDS011;14326;50.794;6.060;2024-01-10T04:48:29;28.42;;;9.25;;
26718;SDS011;14326;50.794;6.060;2024-01-10T04:50:56;32.35;;;9.07;;
26718;SDS011;14326;50.794;6.060;2024-01-10T04:53:22;26.25;;;8.23;;
26718;SDS011;14326;50.794;6.060;2024-01-10T04:55:48;23.95;;;8.88;;
26718;SDS011;14326;50.794;6.060;2024-01-10T04:58:15;26.38;;;9.05;;
26718;SDS011;14326;50.794;6.060;2024-01-10T05:00:42;26.88;;;9.25;;
26718;SDS011;14326;50.794;6.060;2024-01-10T05:03:09;32.10;;;9.90;;
26718;SDS011;14326;50.794;6.060;2024-01-10T05:05:35;30.55;;;9.82;;
26718;SDS011;14326;50.794;6.060;2024-01-10T05:08:02;23.35;;;8.63;;
26718;SDS011;14326;50.794;6.060;2024-01-10T05:10:28;27.55;;;8.65;;
26718;SDS011;14326;50.794;6.060;2024-01-10T05:12:54;25.55;;;9.02;;
26718;SDS011;14326;50.794;6.060;2024-01-10T05:15:21;27.80;;;8.93;;
26718;SDS011;14326;50.794;6.060;2024-01-10T05:17:48;24.65;;;8.55;;
26718;SDS011;14326;50.794;6.060;2024-01-10T05:20:15;26.33;;;9.15;;
26718;SDS011;14326;50.794;6.060;2024-01-10T05:22:42;27.45;;;9.05;;
26718;SDS011;14326;50.794;6.060;2024-01-10T05:25:08;29.40;;;10.35;;
26718;SDS011;14326;50.794;6.060;2024-01-10T05:27:35;27.25;;;10.10;;
26718;SDS011;14326;50.794;6.060;2024-01-10T05:30:01;27.50;;;8.70;;
26718;SDS011;14326;50.794;6.060;2024-01-10T05:32:27;28.77;;;10.90;;
26718;SDS011;14326;50.794;6.060;2024-01-10T05:34:55;26.48;;;9.05;;
26718;SDS011;14326;50.794;6.060;2024-01-10T05:37:21;26.35;;;9.73;;
26718;SDS011;14326;50.794;6.060;2024-01-10T05:39:48;27.63;;;8.73;;
26718;SDS011;14326;50.794;6.060;2024-01-10T05:42:14;28.48;;;9.82;;
26718;SDS011;14326;50.794;6.060;2024-01-10T05:44:41;35.85;;;10.18;;
26718;SDS011;14326;50.794;6.060;2024-01-10T05:47:07;30.23;;;9.60;;
26718;SDS011;14326;50.794;6.060;2024-01-10T05:49:34;30.02;;;9.32;;
26718;SDS011;14326;50.794;6.060;2024-01-10T05:52:02;30.20;;;9.15;;
26718;SDS011;14326;50.794;6.060;2024-01-10T05:54:28;30.67;;;9.98;;
26718;SDS011;14326;50.794;6.060;2024-01-10T05:56:54;27.20;;;9.63;;
26718;SDS011;14326;50.794;6.060;2024-01-10T05:59:21;27.85;;;10.07;;
26718;SDS011;14326;50.794;6.060;2024-01-10T06:01:47;34.47;;;10.57;;
26718;SDS011;14326;50.794;6.060;2024-01-10T06:04:14;36.53;;;11.00;;
26718;SDS011;14326;50.794;6.060;2024-01-10T06:06:40;31.40;;;10.57;;
26718;SDS011;14326;50.794;6.060;2024-01-10T06:09:08;29.48;;;12.20;;
26718;SDS011;14326;50.794;6.060;2024-01-10T06:11:40;22.38;;;8.05;;
26718;SDS011;14326;50.794;6.060;2024-01-10T06:14:06;34.88;;;10.23;;
26718;SDS011;14326;50.794;6.060;2024-01-10T06:16:32;30.85;;;10.27;;
26718;SDS011;14326;50.794;6.060;2024-01-10T06:18:59;33.20;;;11.15;;
26718;SDS011;14326;50.794;6.060;2024-01-10T06:21:25;30.92;;;9.60;;
26718;SDS011;14326;50.794;6.060;2024-01-10T06:23:51;30.77;;;10.35;;
26718;SDS011;14326;50.794;6.060;2024-01-10T06:26:19;29.27;;;9.90;;
26718;SDS011;14326;50.794;6.060;2024-01-10T06:28:47;35.38;;;10.68;;
26718;SDS011;14326;50.794;6.060;2024-01-10T06:31:13;31.70;;;9.98;;
26718;SDS011;14326;50.794;6.060;2024-01-10T06:33:40;32.13;;;9.77;;
26718;SDS011;14326;50.794;6.060;2024-01-10T06:36:06;31.08;;;10.05;;
26718;SDS011;14326;50.794;6.060;2024-01-10T06:38:33;29.10;;;10.25;;
26718;SDS011;14326;50.794;6.060;2024-01-10T06:40:59;33.83;;;10.38;;
26718;SDS011;14326;50.794;6.060;2024-01-10T06:43:27;29.63;;;10.00;;
26718;SDS011;14326;50.794;6.060;2024-01-10T06:45:53;30.73;;;10.05;;
26718;SDS011;14326;50.794;6.060;2024-01-10T06:48:19;30.95;;;9.23;;
26718;SDS011;14326;50.794;6.060;2024-01-10T06:50:46;30.92;;;10.25;;
26718;SDS011;14326;50.794;6.060;2024-01-10T06:53:12;26.48;;;10.57;;
26718;SDS011;14326;50.794;6.060;2024-01-10T06:55:39;42.65;;;10.82;;
26718;SDS011;14326;50.794;6.060;2024-01-10T06:58:05;28.55;;;9.60;;
26718;SDS011;14326;50.794;6.060;2024-01-10T07:00:33;26.75;;;9.48;;
26718;SDS011;14326;50.794;6.060;2024-01-10T07:03:00;32.50;;;11.05;;
26718;SDS011;14326;50.794;6.060;2024-01-10T07:05:27;28.10;;;10.25;;
26718;SDS011;14326;50.794;6.060;2024-01-10T07:07:53;29.08;;;10.10;;
26718;SDS011;14326;50.794;6.060;2024-01-10T07:10:19;28.85;;;10.35;;
26718;SDS011;14326;50.794;6.060;2024-01-10T07:12:49;31.50;;;10.35;;
26718;SDS011;14326;50.794;6.060;2024-01-10T07:15:16;33.13;;;9.73;;
26718;SDS011;14326;50.794;6.060;2024-01-10T07:17:44;31.85;;;9.98;;
26718;SDS011;14326;50.794;6.060;2024-01-10T07:20:10;30.40;;;10.23;;
26718;SDS011;14326;50.794;6.060;2024-01-10T07:22:37;33.50;;;10.50;;
26718;SDS011;14326;50.794;6.060;2024-01-10T07:25:06;26.83;;;9.95;;
26718;SDS011;14326;50.794;6.060;2024-01-10T07:27:33;30.70;;;10.32;;
26718;SDS011;14326;50.794;6.060;2024-01-10T07:30:02;28.63;;;9.87;;
26718;SDS011;14326;50.794;6.060;2024-01-10T07:32:29;31.80;;;11.48;;
26718;SDS011;14326;50.794;6.060;2024-01-10T07:34:56;30.52;;;9.75;;
26718;SDS011;14326;50.794;6.060;2024-01-10T07:37:23;28.83;;;11.38;;
26718;SDS011;14326;50.794;6.060;2024-01-10T07:39:49;31.90;;;9.70;;
26718;SDS011;14326;50.794;6.060;2024-01-10T07:42:16;29.17;;;9.93;;
26718;SDS011;14326;50.794;6.060;2024-01-10T07:44:43;29.88;;;11.00;;
26718;SDS011;14326;50.794;6.060;2024-01-10T07:47:09;27.05;;;10.57;;
26718;SDS011;14326;50.794;6.060;2024-01-10T07:49:36;30.70;;;9.90;;
26718;SDS011;14326;50.794;6.060;2024-01-10T07:52:04;37.00;;;11.07;;
26718;SDS011;14326;50.794;6.060;2024-01-10T07:54:31;30.17;;;11.07;;
26718;SDS011;14326;50.794;6.060;2024-01-10T07:56:58;34.88;;;12.43;;
26718;SDS011;14326;50.794;6.060;2024-01-10T07:59:24;34.03;;;11.90;;
26718;SDS011;14326;50.794;6.060;2024-01-10T08:01:56;33.10;;;11.60;;
26718;SDS011;14326;50.794;6.060;2024-01-10T08:04:23;30.92;;;10.45;;
26718;SDS011;14326;50.794;6.060;2024-01-10T08:06:50;35.28;;;11.20;;
26718;SDS011;14326;50.794;6.060;2024-01-10T08:09:18;36.42;;;11.52;;
26718;SDS011;14326;50.794;6.060;2024-01-10T08:11:45;32.78;;;11.73;;
26718;SDS011;14326;50.794;6.060;2024-01-10T08:14:11;41.72;;;14.23;;
26718;SDS011;14326;50.794;6.060;2024-01-10T08:16:38;35.45;;;11.27;;
26718;SDS011;14326;50.794;6.060;2024-01-10T08:19:04;33.75;;;11.18;;
26718;SDS011;14326;50.794;6.060;2024-01-10T08:21:30;34.38;;;11.38;;
26718;SDS011;14326;50.794;6.060;2024-01-10T08:23:57;32.75;;;11.38;;
26718;SDS011;14326;50.794;6.060;2024-01-10T08:26:25;32.75;;;10.63;;
26718;SDS011;14326;50.794;6.060;2024-01-10T08:28:52;35.95;;;11.93;;
26718;SDS011;14326;50.794;6.060;2024-01-10T08:31:19;36.00;;;12.23;;
26718;SDS011;14326;50.794;6.060;2024-01-10T08:33:45;32.83;;;11.18;;
26718;SDS011;14326;50.794;6.060;2024-01-10T08:36:12;33.75;;;11.95;;
26718;SDS011;14326;50.794;6.060;2024-01-10T08:38:39;32.97;;;11.70;;
26718;SDS011;14326;50.794;6.060;2024-01-10T08:41:06;29.92;;;11.52;;
26718;SDS011;14326;50.794;6.060;2024-01-10T08:43:35;33.63;;;13.13;;
26718;SDS011;14326;50.794;6.060;2024-01-10T08:46:01;35.38;;;13.43;;
26718;SDS011;14326;50.794;6.060;2024-01-10T08:48:27;40.35;;;15.73;;
26718;SDS011;14326;50.794;6.060;2024-01-10T08:50:54;37.30;;;15.23;;
26718;SDS011;14326;50.794;6.060;2024-01-10T08:53:21;35.30;;;14.10;;
26718;SDS011;14326;50.794;6.060;2024-01-10T08:55:47;35.67;;;12.82;;
26718;SDS011;14326;50.794;6.060;2024-01-10T08:58:14;40.20;;;13.98;;
26718;SDS011;14326;50.794;6.060;2024-01-10T09:00:41;31.08;;;12.15;;
26718;SDS011;14326;50.794;6.060;2024-01-10T09:03:08;36.70;;;13.00;;
26718;SDS011;14326;50.794;6.060;2024-01-10T09:05:34;37.50;;;13.43;;
26718;SDS011;14326;50.794;6.060;2024-01-10T09:08:00;37.72;;;12.98;;
26718;SDS011;14326;50.794;6.060;2024-01-10T09:10:28;39.67;;;13.48;;
26718;SDS011;14326;50.794;6.060;2024-01-10T09:12:54;39.47;;;13.73;;
26718;SDS011;14326;50.794;6.060;2024-01-10T09:15:20;32.63;;;12.38;;
26718;SDS011;14326;50.794;6.060;2024-01-10T09:17:48;34.33;;;11.75;;
26718;SDS011;14326;50.794;6.060;2024-01-10T09:20:15;34.97;;;13.10;;
26718;SDS011;14326;50.794;6.060;2024-01-10T09:22:41;33.97;;;12.60;;
26718;SDS011;14326;50.794;6.060;2024-01-10T09:25:08;31.52;;;12.65;;
26718;SDS011;14326;50.794;6.060;2024-01-10T09:27:34;35.92;;;12.05;;
26718;SDS011;14326;50.794;6.060;2024-01-10T09:30:01;32.97;;;12.07;;
26718;SDS011;14326;50.794;6.060;2024-01-10T09:32:27;35.17;;;12.80;;
26718;SDS011;14326;50.794;6.060;2024-01-10T09:34:55;33.65;;;12.55;;
26718;SDS011;14326;50.794;6.060;2024-01-10T09:37:22;33.05;;;10.80;;
26718;SDS011;14326;50.794;6.060;2024-01-10T09:39:48;29.73;;;10.93;;
26718;SDS011;14326;50.794;6.060;2024-01-10T09:42:15;34.40;;;12.10;;
26718;SDS011;14326;50.794;6.060;2024-01-10T09:44:41;36.83;;;12.65;;
26718;SDS011;14326;50.794;6.060;2024-01-10T09:47:07;34.75;;;15.88;;
26718;SDS011;14326;50.794;6.060;2024-01-10T09:49:35;36.10;;;13.55;;
26718;SDS011;14326;50.794;6.060;2024-01-10T09:52:03;34.70;;;13.63;;
26718;SDS011;14326;50.794;6.060;2024-01-10T09:54:30;38.93;;;13.57;;
26718;SDS011;14326;50.794;6.060;2024-01-10T09:56:57;34.53;;;12.90;;
26718;SDS011;14326;50.794;6.060;2024-01-10T09:59:23;35.47;;;12.70;;
26718;SDS011;14326;50.794;6.060;2024-01-10T10:01:50;32.55;;;11.90;;
26718;SDS011;14326;50.794;6.060;2024-01-10T10:04:17;35.25;;;12.20;;
26718;SDS011;14326;50.794;6.060;2024-01-10T10:06:44;29.45;;;10.57;;
26718;SDS011;14326;50.794;6.060;2024-01-10T10:09:12;34.25;;;12.07;;
26718;SDS011;14326;50.794;6.060;2024-01-10T10:11:39;32.88;;;10.82;;
26718;SDS011;14326;50.794;6.060;2024-01-10T10:14:15;35.53;;;10.73;;
26718;SDS011;14326;50.794;6.060;2024-01-10T10:16:42;44.60;;;14.93;;
26718;SDS011;14326;50.794;6.060;2024-01-10T10:19:08;39.40;;;12.18;;
26718;SDS011;14326;50.794;6.060;2024-01-10T10:21:36;36.35;;;12.00;;
26718;SDS011;14326;50.794;6.060;2024-01-10T10:24:03;31.10;;;11.43;;
26718;SDS011;14326;50.794;6.060;2024-01-10T10:26:33;35.03;;;11.50;;
26718;SDS011;14326;50.794;6.060;2024-01-10T10:29:00;35.45;;;12.05;;
26718;SDS011;14326;50.794;6.060;2024-01-10T10:31:26;33.47;;;11.57;;
26718;SDS011;14326;50.794;6.060;2024-01-10T10:33:54;33.83;;;12.05;;
26718;SDS011;14326;50.794;6.060;2024-01-10T10:36:20;32.67;;;11.80;;
26718;SDS011;14326;50.794;6.060;2024-01-10T10:38:47;35.67;;;13.07;;
26718;SDS011;14326;50.794;6.060;2024-01-10T10:41:13;36.28;;;11.80;;
26718;SDS011;14326;50.794;6.060;2024-01-10T10:43:41;33.75;;;11.18;;
26718;SDS011;14326;50.794;6.060;2024-01-10T10:46:08;31.27;;;10.57;;
26718;SDS011;14326;50.794;6.060;2024-01-10T10:48:37;37.05;;;12.02;;
26718;SDS011;14326;50.794;6.060;2024-01-10T10:51:04;37.00;;;11.85;;
26718;SDS011;14326;50.794;6.060;2024-01-10T10:53:31;30.65;;;11.13;;
26718;SDS011;14326;50.794;6.060;2024-01-10T10:55:58;29.67;;;11.40;;
26718;SDS011;14326;50.794;6.060;2024-01-10T10:58:25;30.63;;;10.70;;
26718;SDS011;14326;50.794;6.060;2024-01-10T11:00:54;34.85;;;11.65;;
26718;SDS011;14326;50.794;6.060;2024-01-10T11:03:21;35.28;;;12.15;;
26718;SDS011;14326;50.794;6.060;2024-01-10T11:05:49;35.53;;;12.88;;
26718;SDS011;14326;50.794;6.060;2024-01-10T11:08:16;33.97;;;11.73;;
26718;SDS011;14326;50.794;6.060;2024-01-10T11:10:44;35.65;;;11.23;;
26718;SDS011;14326;50.794;6.060;2024-01-10T11:13:24;34.47;;;12.75;;
26718;SDS011;14326;50.794;6.060;2024-01-10T11:16:02;30.85;;;9.70;;
26718;SDS011;14326;50.794;6.060;2024-01-10T11:18:40;40.22;;;12.13;;
26718;SDS011;14326;50.794;6.060;2024-01-10T11:21:14;33.70;;;12.10;;
26718;SDS011;14326;50.794;6.060;2024-01-10T11:23:44;33.85;;;12.50;;
26718;SDS011;14326;50.794;6.060;2024-01-10T11:26:11;34.80;;;12.45;;
26718;SDS011;14326;50.794;6.060;2024-01-10T11:28:38;32.20;;;12.38;;
26718;SDS011;14326;50.794;6.060;2024-01-10T11:31:07;39.28;;;14.18;;
26718;SDS011;14326;50.794;6.060;2024-01-10T11:33:34;33.70;;;12.00;;
26718;SDS011;14326;50.794;6.060;2024-01-10T11:36:14;35.88;;;13.30;;
26718;SDS011;14326;50.794;6.060;2024-01-10T11:38:41;34.58;;;11.85;;
26718;SDS011;14326;50.794;6.060;2024-01-10T11:41:09;35.45;;;13.48;;
26718;SDS011;14326;50.794;6.060;2024-01-10T11:43:36;39.65;;;14.63;;
26718;SDS011;14326;50.794;6.060;2024-01-10T11:46:03;40.67;;;12.77;;
26718;SDS011;14326;50.794;6.060;2024-01-10T11:48:32;39.95;;;13.88;;
26718;SDS011;14326;50.794;6.060;2024-01-10T11:50:58;35.33;;;13.82;;
26718;SDS011;14326;50.794;6.060;2024-01-10T11:56:15;35.80;;;13.75;;
26718;SDS011;14326;50.794;6.060;2024-01-10T11:58:52;39.10;;;15.07;;
26718;SDS011;14326;50.794;6.060;2024-01-10T12:01:17;37.53;;;13.48;;
26718;SDS011;14326;50.794;6.060;2024-01-10T12:03:45;34.55;;;13.65;;
26718;SDS011;14326;50.794;6.060;2024-01-10T12:06:12;36.10;;;14.43;;
26718;SDS011;14326;50.794;6.060;2024-01-10T12:08:39;37.17;;;13.60;;
26718;SDS011;14326;50.794;6.060;2024-01-10T12:11:06;38.25;;;14.50;;
26718;SDS011;14326;50.794;6.060;2024-01-10T12:13:33;37.88;;;14.70;;
26718;SDS011;14326;50.794;6.060;2024-01-10T12:16:00;40.38;;;13.68;;
26718;SDS011;14326;50.794;6.060;2024-01-10T12:18:26;41.80;;;14.73;;
26718;SDS011;14326;50.794;6.060;2024-01-10T12:20:54;36.53;;;15.02;;
26718;SDS011;14326;50.794;6.060;2024-01-10T12:23:20;34.13;;;13.88;;
26718;SDS011;14326;50.794;6.060;2024-01-10T12:25:48;41.25;;;14.43;;
26718;SDS011;14326;50.794;6.060;2024-01-10T12:28:15;36.55;;;14.52;;
26718;SDS011;14326;50.794;6.060;2024-01-10T12:30:42;36.28;;;15.45;;
26718;SDS011;14326;50.794;6.060;2024-01-10T12:33:09;38.85;;;14.93;;
26718;SDS011;14326;50.794;6.060;2024-01-10T12:35:35;46.15;;;16.75;;
26718;SDS011;14326;50.794;6.060;2024-01-10T12:38:04;37.97;;;14.50;;
26718;SDS011;14326;50.794;6.060;2024-01-10T12:40:31;38.90;;;15.07;;
26718;SDS011;14326;50.794;6.060;2024-01-10T12:43:01;39.10;;;14.27;;
26718;SDS011;14326;50.794;6.060;2024-01-10T12:45:28;36.67;;;16.13;;
26718;SDS011;14326;50.794;6.060;2024-01-10T12:47:54;39.47;;;14.75;;
26718;SDS011;14326;50.794;6.060;2024-01-10T12:50:21;52.15;;;17.05;;
26718;SDS011;14326;50.794;6.060;2024-01-10T12:52:47;41.33;;;14.90;;
26718;SDS011;14326;50.794;6.060;2024-01-10T12:55:15;42.60;;;15.93;;
26718;SDS011;14326;50.794;6.060;2024-01-10T12:57:42;44.55;;;16.60;;
26718;SDS011;14326;50.794;6.060;2024-01-10T13:00:09;35.88;;;15.30;;
26718;SDS011;14326;50.794;6.060;2024-01-10T13:02:36;41.47;;;16.40;;
26718;SDS011;14326;50.794;6.060;2024-01-10T13:05:03;39.25;;;14.52;;
26718;SDS011;14326;50.794;6.060;2024-01-10T13:07:30;43.97;;;15.85;;
26718;SDS011;14326;50.794;6.060;2024-01-10T13:09:56;38.30;;;16.55;;
26718;SDS011;14326;50.794;6.060;2024-01-10T13:12:24;46.45;;;16.25;;
26718;SDS011;14326;50.794;6.060;2024-01-10T13:14:51;38.25;;;15.85;;
26718;SDS011;14326;50.794;6.060;2024-01-10T13:17:18;39.33;;;15.73;;
26718;SDS011;14326;50.794;6.060;2024-01-10T13:19:44;38.10;;;14.77;;
26718;SDS011;14326;50.794;6.060;2024-01-10T13:22:13;41.08;;;17.08;;
26718;SDS011;14326;50.794;6.060;2024-01-10T13:24:41;40.53;;;15.02;;
26718;SDS011;14326;50.794;6.060;2024-01-10T13:27:08;36.28;;;15.30;;
26718;SDS011;14326;50.794;6.060;2024-01-10T13:29:37;45.35;;;16.20;;
26718;SDS011;14326;50.794;6.060;2024-01-10T13:32:03;41.50;;;15.18;;
26718;SDS011;14326;50.794;6.060;2024-01-10T13:34:30;37.63;;;15.02;;
26718;SDS011;14326;50.794;6.060;2024-01-10T13:36:56;44.92;;;16.23;;
26718;SDS011;14326;50.794;6.060;2024-01-10T13:39:22;41.22;;;16.17;;
26718;SDS011;14326;50.794;6.060;2024-01-10T13:41:49;48.13;;;15.68;;
26718;SDS011;14326;50.794;6.060;2024-01-10T13:44:16;40.10;;;15.27;;
26718;SDS011;14326;50.794;6.060;2024-01-10T13:46:43;40.60;;;14.30;;
26718;SDS011;14326;50.794;6.060;2024-01-10T13:49:10;38.78;;;15.32;;
26718;SDS011;14326;50.794;6.060;2024-01-10T13:51:36;42.85;;;16.80;;
26718;SDS011;14326;50.794;6.060;2024-01-10T13:54:03;42.20;;;15.70;;
26718;SDS011;14326;50.794;6.060;2024-01-10T13:56:29;42.28;;;15.40;;
26718;SDS011;14326;50.794;6.060;2024-01-10T13:58:57;37.63;;;14.68;;
26718;SDS011;14326;50.794;6.060;2024-01-10T14:01:23;41.03;;;15.93;;
26718;SDS011;14326;50.794;6.060;2024-01-10T14:03:52;36.90;;;14.93;;
26718;SDS011;14326;50.794;6.060;2024-01-10T14:06:19;38.63;;;14.95;;
26718;SDS011;14326;50.794;6.060;2024-01-10T14:08:45;43.03;;;15.38;;
26718;SDS011;14326;50.794;6.060;2024-01-10T14:11:14;40.30;;;14.02;;
26718;SDS011;14326;50.794;6.060;2024-01-10T14:13:40;40.22;;;15.52;;
26718;SDS011;14326;50.794;6.060;2024-01-10T14:16:06;34.33;;;13.90;;
26718;SDS011;14326;50.794;6.060;2024-01-10T14:18:33;38.05;;;14.45;;
26718;SDS011;14326;50.794;6.060;2024-01-10T14:21:01;39.72;;;13.35;;
26718;SDS011;14326;50.794;6.060;2024-01-10T14:23:27;39.70;;;15.05;;
26718;SDS011;14326;50.794;6.060;2024-01-10T14:25:54;38.22;;;15.25;;
26718;SDS011;14326;50.794;6.060;2024-01-10T14:28:20;35.05;;;15.15;;
26718;SDS011;14326;50.794;6.060;2024-01-10T14:30:47;33.03;;;13.85;;